sensor_id;sensor_type;location;lat;lon;timestamp;pressure;altitude;pressure_sealevel;temperature;humidity
5380;BME280;2713;42.680;23.310;2023-02-16T00:01:44;96347.28;;;4.83;64.00
5380;BME280;2713;42.680;23.310;2023-02-16T00:04:16;96343.75;;;4.84;63.97
5380;BME280;2713;42.680;23.310;2023-02-16T00:06:44;96343.88;;;4.82;63.94
5380;BME280;2713;42.680;23.310;2023-02-16T00:09:11;96345.91;;;4.66;63.39
5380;BME280;2713;42.680;23.310;2023-02-16T00:11:38;96342.25;;;4.57;65.13
5380;BME280;2713;42.680;23.310;2023-02-16T00:14:22;96326.00;;;4.57;63.95
5380;BME280;2713;42.680;23.310;2023-02-16T00:16:52;96341.13;;;4.73;64.10
5380;BME280;2713;42.680;23.310;2023-02-16T00:19:21;96339.06;;;4.78;63.89
5380;BME280;2713;42.680;23.310;2023-02-16T00:21:49;96333.91;;;4.78;64.19
5380;BME280;2713;42.680;23.310;2023-02-16T00:24:16;96342.69;;;4.86;64.13
5380;BME280;2713;42.680;23.310;2023-02-16T00:26:44;96342.56;;;4.77;64.07
5380;BME280;2713;42.680;23.310;2023-02-16T00:29:16;96336.25;;;4.81;63.64
5380;BME280;2713;42.680;23.310;2023-02-16T00:31:44;96337.91;;;4.82;63.60
5380;BME280;2713;42.680;23.310;2023-02-16T00:34:36;96343.41;;;4.53;62.69
5380;BME280;2713;42.680;23.310;2023-02-16T00:37:05;96344.16;;;4.67;63.90
5380;BME280;2713;42.680;23.310;2023-02-16T00:39:33;96338.41;;;4.52;64.19
5380;BME280;2713;42.680;23.310;2023-02-16T00:42:02;96335.00;;;4.51;63.92
5380;BME280;2713;42.680;23.310;2023-02-16T00:44:33;96339.56;;;4.59;63.64
5380;BME280;2713;42.680;23.310;2023-02-16T00:47:08;96336.44;;;4.67;63.96
5380;BME280;2713;42.680;23.310;2023-02-16T00:49:37;96340.91;;;4.41;64.85
5380;BME280;2713;42.680;23.310;2023-02-16T00:52:21;96338.09;;;4.68;64.02
5380;BME280;2713;42.680;23.310;2023-02-16T00:54:50;96330.44;;;4.55;63.77
5380;BME280;2713;42.680;23.310;2023-02-16T00:57:17;96334.16;;;4.51;63.47
5380;BME280;2713;42.680;23.310;2023-02-16T00:59:45;96336.84;;;4.49;64.19
5380;BME280;2713;42.680;23.310;2023-02-16T01:02:14;96332.84;;;4.45;63.01
5380;BME280;2713;42.680;23.310;2023-02-16T01:04:43;96333.34;;;4.50;63.03
5380;BME280;2713;42.680;23.310;2023-02-16T01:07:10;96327.28;;;4.51;62.85
5380;BME280;2713;42.680;23.310;2023-02-16T01:09:55;96333.44;;;4.49;63.55
5380;BME280;2713;42.680;23.310;2023-02-16T01:12:39;96328.28;;;4.49;63.13
5380;BME280;2713;42.680;23.310;2023-02-16T01:15:09;96325.56;;;4.39;63.59
5380;BME280;2713;42.680;23.310;2023-02-16T01:17:38;96328.59;;;4.33;64.55
5380;BME280;2713;42.680;23.310;2023-02-16T01:20:13;96316.50;;;4.57;63.43
5380;BME280;2713;42.680;23.310;2023-02-16T01:22:39;96321.66;;;4.57;63.18
5380;BME280;2713;42.680;23.310;2023-02-16T01:25:07;96315.69;;;4.57;62.91
5380;BME280;2713;42.680;23.310;2023-02-16T01:27:35;96314.28;;;4.53;62.25
5380;BME280;2713;42.680;23.310;2023-02-16T01:30:03;96309.41;;;4.37;62.71
5380;BME280;2713;42.680;23.310;2023-02-16T01:32:31;96307.91;;;4.35;63.13
5380;BME280;2713;42.680;23.310;2023-02-16T01:34:57;96301.16;;;4.21;63.70
5380;BME280;2713;42.680;23.310;2023-02-16T01:37:26;96302.16;;;4.31;64.05
5380;BME280;2713;42.680;23.310;2023-02-16T01:39:52;96293.22;;;4.24;64.70
5380;BME280;2713;42.680;23.310;2023-02-16T01:42:28;96307.88;;;4.11;64.42
5380;BME280;2713;42.680;23.310;2023-02-16T01:45:00;96294.84;;;4.25;64.80
5380;BME280;2713;42.680;23.310;2023-02-16T01:47:33;96297.41;;;4.25;64.21
5380;BME280;2713;42.680;23.310;2023-02-16T01:50:17;96293.81;;;4.28;64.85
5380;BME280;2713;42.680;23.310;2023-02-16T01:52:51;96289.28;;;4.31;64.20
5380;BME280;2713;42.680;23.310;2023-02-16T01:55:21;96291.50;;;4.36;64.41
5380;BME280;2713;42.680;23.310;2023-02-16T01:57:55;96292.97;;;4.51;63.01
5380;BME280;2713;42.680;23.310;2023-02-16T02:00:28;96289.97;;;4.33;63.31
5380;BME280;2713;42.680;23.310;2023-02-16T02:02:57;96293.53;;;4.43;62.74
5380;BME280;2713;42.680;23.310;2023-02-16T02:05:46;96289.28;;;4.31;62.95
5380;BME280;2713;42.680;23.310;2023-02-16T02:08:20;96292.50;;;4.22;63.40
5380;BME280;2713;42.680;23.310;2023-02-16T02:11:00;96294.38;;;4.20;63.32
5380;BME280;2713;42.680;23.310;2023-02-16T02:13:33;96292.88;;;4.05;64.05
5380;BME280;2713;42.680;23.310;2023-02-16T02:16:04;96297.50;;;4.13;63.12
5380;BME280;2713;42.680;23.310;2023-02-16T02:18:31;96291.91;;;4.19;63.79
5380;BME280;2713;42.680;23.310;2023-02-16T02:24:43;96290.75;;;4.23;62.68
5380;BME280;2713;42.680;23.310;2023-02-16T02:27:20;96290.06;;;4.32;62.00
5380;BME280;2713;42.680;23.310;2023-02-16T02:30:07;96290.00;;;4.09;62.84
5380;BME280;2713;42.680;23.310;2023-02-16T02:32:58;96287.97;;;4.02;63.79
5380;BME280;2713;42.680;23.310;2023-02-16T02:35:43;96276.69;;;3.92;64.59
5380;BME280;2713;42.680;23.310;2023-02-16T02:38:16;96273.94;;;4.06;64.15
5380;BME280;2713;42.680;23.310;2023-02-16T02:40:53;96279.09;;;4.06;64.30
5380;BME280;2713;42.680;23.310;2023-02-16T02:43:30;96276.91;;;4.13;64.58
5380;BME280;2713;42.680;23.310;2023-02-16T02:46:06;96288.13;;;4.12;63.92
5380;BME280;2713;42.680;23.310;2023-02-16T02:48:34;96287.28;;;4.11;64.16
5380;BME280;2713;42.680;23.310;2023-02-16T02:51:07;96288.41;;;3.96;63.76
5380;BME280;2713;42.680;23.310;2023-02-16T02:53:56;96284.69;;;3.76;63.76
5380;BME280;2713;42.680;23.310;2023-02-16T02:56:45;96284.09;;;3.84;64.07
5380;BME280;2713;42.680;23.310;2023-02-16T02:59:33;96286.97;;;3.92;64.60
5380;BME280;2713;42.680;23.310;2023-02-16T03:02:21;96297.19;;;3.81;64.86
5380;BME280;2713;42.680;23.310;2023-02-16T03:04:51;96289.97;;;3.86;64.18
5380;BME280;2713;42.680;23.310;2023-02-16T03:07:21;96293.31;;;3.99;64.24
5380;BME280;2713;42.680;23.310;2023-02-16T03:10:09;96291.81;;;3.96;64.85
5380;BME280;2713;42.680;23.310;2023-02-16T03:12:50;96287.97;;;4.02;64.30
5380;BME280;2713;42.680;23.310;2023-02-16T03:15:19;96294.97;;;3.76;65.06
5380;BME280;2713;42.680;23.310;2023-02-16T03:17:46;96296.34;;;3.93;63.98
5380;BME280;2713;42.680;23.310;2023-02-16T03:20:30;96291.34;;;4.02;63.97
5380;BME280;2713;42.680;23.310;2023-02-16T03:23:14;96287.56;;;3.95;64.36
5380;BME280;2713;42.680;23.310;2023-02-16T03:25:59;96287.25;;;4.00;64.21
5380;BME280;2713;42.680;23.310;2023-02-16T03:28:44;96291.97;;;4.06;63.02
5380;BME280;2713;42.680;23.310;2023-02-16T03:31:33;96285.50;;;4.00;63.61
5380;BME280;2713;42.680;23.310;2023-02-16T03:34:03;96284.09;;;3.96;63.32
5380;BME280;2713;42.680;23.310;2023-02-16T03:36:32;96279.38;;;3.90;63.90
5380;BME280;2713;42.680;23.310;2023-02-16T03:39:01;96274.47;;;3.75;63.72
5380;BME280;2713;42.680;23.310;2023-02-16T03:41:31;96277.75;;;3.77;64.30
5380;BME280;2713;42.680;23.310;2023-02-16T03:43:59;96280.94;;;3.80;64.47
5380;BME280;2713;42.680;23.310;2023-02-16T03:46:26;96283.72;;;3.77;63.24
5380;BME280;2713;42.680;23.310;2023-02-16T03:48:54;96274.66;;;3.84;62.52
5380;BME280;2713;42.680;23.310;2023-02-16T03:51:21;96284.56;;;3.78;63.61
5380;BME280;2713;42.680;23.310;2023-02-16T03:53:47;96281.88;;;3.79;63.67
5380;BME280;2713;42.680;23.310;2023-02-16T03:56:15;96260.84;;;3.62;63.41
5380;BME280;2713;42.680;23.310;2023-02-16T03:58:41;96289.25;;;3.84;63.25
5380;BME280;2713;42.680;23.310;2023-02-16T04:01:08;96280.28;;;3.66;63.22
5380;BME280;2713;42.680;23.310;2023-02-16T04:03:35;96285.25;;;3.56;64.11
5380;BME280;2713;42.680;23.310;2023-02-16T04:06:03;96289.97;;;3.62;64.30
5380;BME280;2713;42.680;23.310;2023-02-16T04:08:30;96280.53;;;3.74;64.46
5380;BME280;2713;42.680;23.310;2023-02-16T04:10:57;96362.97;;;4.32;64.35
5380;BME280;2713;42.680;23.310;2023-02-16T04:13:25;96275.38;;;3.50;65.86
5380;BME280;2713;42.680;23.310;2023-02-16T04:15:51;96274.78;;;3.34;65.60
5380;BME280;2713;42.680;23.310;2023-02-16T04:18:18;96274.59;;;3.24;66.38
5380;BME280;2713;42.680;23.310;2023-02-16T04:20:44;96277.97;;;3.37;65.96
5380;BME280;2713;42.680;23.310;2023-02-16T04:23:12;96278.28;;;3.45;65.95
5380;BME280;2713;42.680;23.310;2023-02-16T04:25:39;96270.25;;;3.37;65.68
5380;BME280;2713;42.680;23.310;2023-02-16T04:28:06;96274.81;;;3.21;67.36
5380;BME280;2713;42.680;23.310;2023-02-16T04:30:33;96270.22;;;3.01;66.43
5380;BME280;2713;42.680;23.310;2023-02-16T04:32:59;96266.91;;;2.99;67.18
5380;BME280;2713;42.680;23.310;2023-02-16T04:35:26;96264.44;;;2.85;67.31
5380;BME280;2713;42.680;23.310;2023-02-16T04:37:53;96271.44;;;2.95;67.36
5380;BME280;2713;42.680;23.310;2023-02-16T04:40:21;96275.75;;;2.95;67.19
5380;BME280;2713;42.680;23.310;2023-02-16T04:42:48;96275.44;;;3.12;67.02
5380;BME280;2713;42.680;23.310;2023-02-16T04:45:15;96278.50;;;3.30;66.35
5380;BME280;2713;42.680;23.310;2023-02-16T04:47:42;96276.66;;;3.32;66.55
5380;BME280;2713;42.680;23.310;2023-02-16T04:50:09;96281.97;;;3.41;65.98
5380;BME280;2713;42.680;23.310;2023-02-16T04:52:37;96282.28;;;3.37;66.06
5380;BME280;2713;42.680;23.310;2023-02-16T04:55:05;96290.22;;;3.34;66.33
5380;BME280;2713;42.680;23.310;2023-02-16T04:57:35;96283.66;;;3.17;65.83
5380;BME280;2713;42.680;23.310;2023-02-16T05:00:03;96289.22;;;3.11;66.93
5380;BME280;2713;42.680;23.310;2023-02-16T05:02:31;96283.84;;;3.01;67.38
5380;BME280;2713;42.680;23.310;2023-02-16T05:04:58;96286.72;;;3.10;67.31
5380;BME280;2713;42.680;23.310;2023-02-16T05:07:24;96295.47;;;3.07;66.88
5380;BME280;2713;42.680;23.310;2023-02-16T05:09:51;96295.25;;;2.85;68.14
5380;BME280;2713;42.680;23.310;2023-02-16T05:12:18;96296.19;;;2.96;67.30
5380;BME280;2713;42.680;23.310;2023-02-16T05:15:04;96293.63;;;2.96;67.54
5380;BME280;2713;42.680;23.310;2023-02-16T05:17:31;96293.94;;;3.04;67.61
5380;BME280;2713;42.680;23.310;2023-02-16T05:19:59;96299.25;;;3.27;66.62
5380;BME280;2713;42.680;23.310;2023-02-16T05:22:27;96275.63;;;3.09;66.64
5380;BME280;2713;42.680;23.310;2023-02-16T05:24:56;96300.19;;;3.38;65.56
5380;BME280;2713;42.680;23.310;2023-02-16T05:27:25;96293.91;;;3.42;65.25
5380;BME280;2713;42.680;23.310;2023-02-16T05:29:52;96303.44;;;3.40;65.29
5380;BME280;2713;42.680;23.310;2023-02-16T05:32:21;96306.84;;;3.41;65.15
5380;BME280;2713;42.680;23.310;2023-02-16T05:34:48;96301.63;;;3.42;65.94
5380;BME280;2713;42.680;23.310;2023-02-16T05:37:16;96310.56;;;3.37;65.63
5380;BME280;2713;42.680;23.310;2023-02-16T05:39:43;96312.00;;;3.41;65.46
5380;BME280;2713;42.680;23.310;2023-02-16T05:42:10;96311.78;;;3.44;65.84
5380;BME280;2713;42.680;23.310;2023-02-16T05:44:37;96282.41;;;3.23;65.44
5380;BME280;2713;42.680;23.310;2023-02-16T05:47:04;96310.66;;;3.48;65.08
5380;BME280;2713;42.680;23.310;2023-02-16T05:49:32;96322.75;;;3.58;65.23
5380;BME280;2713;42.680;23.310;2023-02-16T05:51:59;96315.06;;;3.58;65.13
5380;BME280;2713;42.680;23.310;2023-02-16T05:54:26;96315.06;;;3.58;64.65
5380;BME280;2713;42.680;23.310;2023-02-16T05:56:52;96315.44;;;3.65;65.01
5380;BME280;2713;42.680;23.310;2023-02-16T05:59:19;96321.19;;;3.69;64.63
5380;BME280;2713;42.680;23.310;2023-02-16T06:01:46;96318.22;;;3.62;65.15
5380;BME280;2713;42.680;23.310;2023-02-16T06:04:13;96323.59;;;3.59;65.66
5380;BME280;2713;42.680;23.310;2023-02-16T06:06:41;96325.41;;;3.57;65.76
5380;BME280;2713;42.680;23.310;2023-02-16T06:09:09;96333.00;;;3.71;65.40
5380;BME280;2713;42.680;23.310;2023-02-16T06:11:36;96325.72;;;3.65;64.90
5380;BME280;2713;42.680;23.310;2023-02-16T06:14:04;96327.78;;;3.60;65.18
5380;BME280;2713;42.680;23.310;2023-02-16T06:16:32;96331.97;;;3.74;65.80
5380;BME280;2713;42.680;23.310;2023-02-16T06:19:00;96331.50;;;3.43;66.40
5380;BME280;2713;42.680;23.310;2023-02-16T06:21:27;96332.75;;;3.50;66.92
5380;BME280;2713;42.680;23.310;2023-02-16T06:23:56;96333.47;;;3.52;66.42
5380;BME280;2713;42.680;23.310;2023-02-16T06:26:23;96330.88;;;3.65;66.55
5380;BME280;2713;42.680;23.310;2023-02-16T06:28:50;96346.16;;;3.67;66.09
5380;BME280;2713;42.680;23.310;2023-02-16T06:31:17;96348.88;;;3.65;66.01
5380;BME280;2713;42.680;23.310;2023-02-16T06:33:45;96343.00;;;3.76;65.78
5380;BME280;2713;42.680;23.310;2023-02-16T06:36:12;96351.28;;;3.92;64.67
5380;BME280;2713;42.680;23.310;2023-02-16T06:38:39;96354.50;;;3.83;65.47
5380;BME280;2713;42.680;23.310;2023-02-16T06:41:08;96353.88;;;3.79;65.48
5380;BME280;2713;42.680;23.310;2023-02-16T06:43:34;96350.47;;;3.79;65.84
5380;BME280;2713;42.680;23.310;2023-02-16T06:46:01;96346.94;;;3.92;65.22
5380;BME280;2713;42.680;23.310;2023-02-16T06:48:28;96353.63;;;3.95;64.89
5380;BME280;2713;42.680;23.310;2023-02-16T06:50:55;96354.50;;;3.83;65.69
5380;BME280;2713;42.680;23.310;2023-02-16T06:53:22;96355.94;;;3.87;65.32
5380;BME280;2713;42.680;23.310;2023-02-16T06:55:50;96352.00;;;3.81;65.63
5380;BME280;2713;42.680;23.310;2023-02-16T06:58:18;96359.41;;;3.86;65.26
5380;BME280;2713;42.680;23.310;2023-02-16T07:00:45;96347.56;;;3.96;65.91
5380;BME280;2713;42.680;23.310;2023-02-16T07:03:11;96352.41;;;3.88;66.39
5380;BME280;2713;42.680;23.310;2023-02-16T07:05:38;96352.22;;;3.78;66.40
5380;BME280;2713;42.680;23.310;2023-02-16T07:08:05;96340.94;;;3.68;67.45
5380;BME280;2713;42.680;23.310;2023-02-16T07:10:32;96344.44;;;3.80;66.30
5380;BME280;2713;42.680;23.310;2023-02-16T07:12:59;96343.25;;;3.84;66.89
5380;BME280;2713;42.680;23.310;2023-02-16T07:15:27;96345.31;;;3.91;66.89
5380;BME280;2713;42.680;23.310;2023-02-16T07:17:54;96330.59;;;3.93;66.66
5380;BME280;2713;42.680;23.310;2023-02-16T07:20:23;96333.03;;;3.95;66.91
5380;BME280;2713;42.680;23.310;2023-02-16T07:22:51;96333.88;;;3.95;67.02
5380;BME280;2713;42.680;23.310;2023-02-16T07:25:18;96324.78;;;4.02;67.37
5380;BME280;2713;42.680;23.310;2023-02-16T07:27:44;96323.75;;;4.05;66.57
5380;BME280;2713;42.680;23.310;2023-02-16T07:30:12;96328.63;;;4.44;65.50
5380;BME280;2713;42.680;23.310;2023-02-16T07:32:42;96323.34;;;4.70;65.10
5380;BME280;2713;42.680;23.310;2023-02-16T07:35:09;96324.22;;;5.03;64.15
5380;BME280;2713;42.680;23.310;2023-02-16T07:37:36;96325.94;;;5.60;62.39
5380;BME280;2713;42.680;23.310;2023-02-16T07:40:03;96320.50;;;6.07;60.75
5380;BME280;2713;42.680;23.310;2023-02-16T07:42:30;96321.56;;;6.05;59.82
5380;BME280;2713;42.680;23.310;2023-02-16T07:44:58;96317.31;;;6.15;59.60
5380;BME280;2713;42.680;23.310;2023-02-16T07:47:24;96323.50;;;6.67;59.14
5380;BME280;2713;42.680;23.310;2023-02-16T07:49:53;96324.69;;;7.04;57.48
5380;BME280;2713;42.680;23.310;2023-02-16T07:52:19;96330.50;;;7.17;56.94
5380;BME280;2713;42.680;23.310;2023-02-16T07:54:46;96319.75;;;7.42;56.33
5380;BME280;2713;42.680;23.310;2023-02-16T07:57:13;96322.72;;;7.17;56.48
5380;BME280;2713;42.680;23.310;2023-02-16T07:59:40;96307.56;;;7.33;55.41
5380;BME280;2713;42.680;23.310;2023-02-16T08:02:14;96322.75;;;7.47;55.90
5380;BME280;2713;42.680;23.310;2023-02-16T08:04:41;96331.03;;;7.72;55.22
5380;BME280;2713;42.680;23.310;2023-02-16T08:07:11;96332.91;;;8.00;54.52
5380;BME280;2713;42.680;23.310;2023-02-16T08:09:38;96322.75;;;8.27;53.67
5380;BME280;2713;42.680;23.310;2023-02-16T08:14:49;96327.69;;;8.88;52.03
5380;BME280;2713;42.680;23.310;2023-02-16T08:17:16;96332.16;;;9.14;51.25
5380;BME280;2713;42.680;23.310;2023-02-16T08:19:42;96331.25;;;8.96;51.70
5380;BME280;2713;42.680;23.310;2023-02-16T08:22:10;96333.28;;;9.12;50.84
5380;BME280;2713;42.680;23.310;2023-02-16T08:24:37;96338.56;;;9.30;50.74
5380;BME280;2713;42.680;23.310;2023-02-16T08:27:04;96340.59;;;9.73;49.81
5380;BME280;2713;42.680;23.310;2023-02-16T08:29:46;96334.91;;;9.59;49.82
5380;BME280;2713;42.680;23.310;2023-02-16T08:32:13;96336.13;;;10.02;48.86
5380;BME280;2713;42.680;23.310;2023-02-16T08:34:40;96341.22;;;9.94;48.33
5380;BME280;2713;42.680;23.310;2023-02-16T08:39:34;96342.22;;;10.20;47.78
5380;BME280;2713;42.680;23.310;2023-02-16T08:42:01;96343.06;;;10.38;47.45
5380;BME280;2713;42.680;23.310;2023-02-16T08:44:28;96337.34;;;10.52;46.65
5380;BME280;2713;42.680;23.310;2023-02-16T08:46:58;96331.13;;;10.63;46.42
5380;BME280;2713;42.680;23.310;2023-02-16T08:49:25;96337.75;;;10.75;45.96
5380;BME280;2713;42.680;23.310;2023-02-16T08:51:54;96331.94;;;10.81;45.90
5380;BME280;2713;42.680;23.310;2023-02-16T08:54:22;96329.69;;;11.04;45.35
5380;BME280;2713;42.680;23.310;2023-02-16T08:56:53;96323.84;;;11.02;44.96
5380;BME280;2713;42.680;23.310;2023-02-16T08:59:21;96325.25;;;10.43;46.90
5380;BME280;2713;42.680;23.310;2023-02-16T09:01:48;96321.94;;;9.96;47.59
5380;BME280;2713;42.680;23.310;2023-02-16T09:04:17;96319.13;;;10.07;47.67
5380;BME280;2713;42.680;23.310;2023-02-16T09:06:45;96323.03;;;9.94;48.09
5380;BME280;2713;42.680;23.310;2023-02-16T09:09:13;96332.41;;;10.04;47.98
5380;BME280;2713;42.680;23.310;2023-02-16T09:11:40;96318.59;;;10.31;47.57
5380;BME280;2713;42.680;23.310;2023-02-16T09:16:47;96314.09;;;10.33;47.21
5380;BME280;2713;42.680;23.310;2023-02-16T09:19:16;96307.91;;;9.89;48.17
5380;BME280;2713;42.680;23.310;2023-02-16T09:21:44;96311.59;;;10.14;47.88
5380;BME280;2713;42.680;23.310;2023-02-16T09:24:12;96308.91;;;10.06;47.80
5380;BME280;2713;42.680;23.310;2023-02-16T09:26:40;96316.53;;;10.17;48.01
5380;BME280;2713;42.680;23.310;2023-02-16T09:29:09;96312.81;;;10.20;48.09
5380;BME280;2713;42.680;23.310;2023-02-16T09:31:37;96307.44;;;10.31;47.34
5380;BME280;2713;42.680;23.310;2023-02-16T09:36:33;96304.50;;;10.16;47.72
5380;BME280;2713;42.680;23.310;2023-02-16T09:39:00;96311.72;;;9.58;49.12
5380;BME280;2713;42.680;23.310;2023-02-16T09:41:47;96295.13;;;9.32;49.86
5380;BME280;2713;42.680;23.310;2023-02-16T09:44:24;96293.66;;;9.20;50.91
5380;BME280;2713;42.680;23.310;2023-02-16T09:46:58;96292.53;;;9.32;50.39
5380;BME280;2713;42.680;23.310;2023-02-16T09:49:30;96289.81;;;9.33;50.36
5380;BME280;2713;42.680;23.310;2023-02-16T09:52:02;96286.72;;;9.20;50.97
5380;BME280;2713;42.680;23.310;2023-02-16T09:54:38;96283.66;;;9.25;51.08
5380;BME280;2713;42.680;23.310;2023-02-16T09:57:12;96282.53;;;9.00;51.40
5380;BME280;2713;42.680;23.310;2023-02-16T09:59:48;96279.97;;;8.90;51.50
5380;BME280;2713;42.680;23.310;2023-02-16T10:02:41;96272.19;;;8.90;51.25
5380;BME280;2713;42.680;23.310;2023-02-16T10:05:18;96264.28;;;8.73;52.10
5380;BME280;2713;42.680;23.310;2023-02-16T10:07:58;96257.44;;;8.81;51.74
5380;BME280;2713;42.680;23.310;2023-02-16T10:10:32;96269.28;;;9.03;51.22
5380;BME280;2713;42.680;23.310;2023-02-16T10:13:02;96259.28;;;9.18;51.37
5380;BME280;2713;42.680;23.310;2023-02-16T10:15:31;96254.00;;;9.00;51.18
5380;BME280;2713;42.680;23.310;2023-02-16T10:18:03;96251.50;;;9.18;51.03
5380;BME280;2713;42.680;23.310;2023-02-16T10:20:36;96245.81;;;9.41;51.04
5380;BME280;2713;42.680;23.310;2023-02-16T10:23:08;96244.91;;;9.60;50.70
5380;BME280;2713;42.680;23.310;2023-02-16T10:25:40;96249.63;;;9.74;49.88
5380;BME280;2713;42.680;23.310;2023-02-16T10:28:16;96245.59;;;9.62;50.01
5380;BME280;2713;42.680;23.310;2023-02-16T10:30:48;96241.47;;;9.59;50.08
5380;BME280;2713;42.680;23.310;2023-02-16T10:33:24;96243.53;;;9.56;50.19
5380;BME280;2713;42.680;23.310;2023-02-16T10:35:59;96244.00;;;9.51;50.48
5380;BME280;2713;42.680;23.310;2023-02-16T10:38:32;96221.94;;;9.38;50.92
5380;BME280;2713;42.680;23.310;2023-02-16T10:41:07;96227.66;;;9.41;50.72
5380;BME280;2713;42.680;23.310;2023-02-16T10:43:41;96237.44;;;9.20;51.47
5380;BME280;2713;42.680;23.310;2023-02-16T10:46:15;96228.19;;;9.35;50.92
5380;BME280;2713;42.680;23.310;2023-02-16T10:48:45;96220.72;;;9.59;50.04
5380;BME280;2713;42.680;23.310;2023-02-16T10:53:45;96221.13;;;9.64;50.02
5380;BME280;2713;42.680;23.310;2023-02-16T10:56:37;96210.38;;;9.50;49.85
5380;BME280;2713;42.680;23.310;2023-02-16T10:59:10;96202.31;;;9.53;50.05
5380;BME280;2713;42.680;23.310;2023-02-16T11:01:42;96206.25;;;9.57;50.00
5380;BME280;2713;42.680;23.310;2023-02-16T11:07:02;96189.03;;;9.56;50.21
5380;BME280;2713;42.680;23.310;2023-02-16T11:09:30;96193.50;;;9.63;50.20
5380;BME280;2713;42.680;23.310;2023-02-16T11:11:58;96198.63;;;9.73;50.16
5380;BME280;2713;42.680;23.310;2023-02-16T11:14:28;96190.81;;;9.83;50.00
5380;BME280;2713;42.680;23.310;2023-02-16T11:17:09;96187.53;;;9.81;50.09
5380;BME280;2713;42.680;23.310;2023-02-16T11:19:38;96181.41;;;9.99;49.28
5380;BME280;2713;42.680;23.310;2023-02-16T11:22:26;96176.50;;;10.14;49.03
5380;BME280;2713;42.680;23.310;2023-02-16T11:24:53;96175.09;;;10.37;48.25
5380;BME280;2713;42.680;23.310;2023-02-16T11:27:22;96171.03;;;10.17;48.32
5380;BME280;2713;42.680;23.310;2023-02-16T11:29:49;96172.34;;;10.39;48.11
5380;BME280;2713;42.680;23.310;2023-02-16T11:32:17;96165.53;;;10.63;47.44
5380;BME280;2713;42.680;23.310;2023-02-16T11:34:47;96155.00;;;10.65;46.72
5380;BME280;2713;42.680;23.310;2023-02-16T11:37:19;96153.41;;;10.98;46.06
5380;BME280;2713;42.680;23.310;2023-02-16T11:39:52;96154.25;;;11.48;45.47
5380;BME280;2713;42.680;23.310;2023-02-16T11:42:27;96154.41;;;11.97;44.57
5380;BME280;2713;42.680;23.310;2023-02-16T11:44:57;96148.22;;;12.14;44.16
5380;BME280;2713;42.680;23.310;2023-02-16T11:47:27;96150.31;;;11.86;43.94
5380;BME280;2713;42.680;23.310;2023-02-16T11:53:14;96147.91;;;12.01;43.66
5380;BME280;2713;42.680;23.310;2023-02-16T11:55:43;96147.94;;;12.25;43.58
5380;BME280;2713;42.680;23.310;2023-02-16T11:58:16;96140.25;;;12.56;42.88
5380;BME280;2713;42.680;23.310;2023-02-16T12:00:51;96133.56;;;12.37;43.08
5380;BME280;2713;42.680;23.310;2023-02-16T12:03:47;96137.47;;;12.33;43.54
5380;BME280;2713;42.680;23.310;2023-02-16T12:06:38;96130.31;;;12.27;43.41
5380;BME280;2713;42.680;23.310;2023-02-16T12:12:08;96117.91;;;12.61;42.68
5380;BME280;2713;42.680;23.310;2023-02-16T12:14:46;96116.25;;;12.77;41.83
5380;BME280;2713;42.680;23.310;2023-02-16T12:17:25;96105.50;;;12.71;41.82
5380;BME280;2713;42.680;23.310;2023-02-16T12:20:01;96105.28;;;12.89;41.69
5380;BME280;2713;42.680;23.310;2023-02-16T12:22:36;96094.72;;;12.75;42.50
5380;BME280;2713;42.680;23.310;2023-02-16T12:25:18;96088.13;;;12.95;41.78
5380;BME280;2713;42.680;23.310;2023-02-16T12:27:53;96093.22;;;12.88;41.87
5380;BME280;2713;42.680;23.310;2023-02-16T12:30:32;96082.41;;;12.99;41.01
5380;BME280;2713;42.680;23.310;2023-02-16T12:36:11;96079.38;;;12.80;41.68
5380;BME280;2713;42.680;23.310;2023-02-16T12:38:49;96081.31;;;12.86;41.45
5380;BME280;2713;42.680;23.310;2023-02-16T12:41:30;96079.25;;;12.57;41.99
5380;BME280;2713;42.680;23.310;2023-02-16T12:44:02;96039.78;;;12.68;41.77
5380;BME280;2713;42.680;23.310;2023-02-16T12:46:35;96066.28;;;12.88;41.49
5380;BME280;2713;42.680;23.310;2023-02-16T12:49:11;96063.00;;;13.10;41.44
5380;BME280;2713;42.680;23.310;2023-02-16T12:51:46;96054.25;;;12.87;41.57
5380;BME280;2713;42.680;23.310;2023-02-16T12:54:16;96052.88;;;12.60;42.13
5380;BME280;2713;42.680;23.310;2023-02-16T12:57:07;96055.16;;;12.47;41.91
5380;BME280;2713;42.680;23.310;2023-02-16T12:59:38;96046.91;;;12.35;42.15
5380;BME280;2713;42.680;23.310;2023-02-16T13:02:14;96044.97;;;12.29;42.44
5380;BME280;2713;42.680;23.310;2023-02-16T13:04:46;96046.72;;;12.37;42.47
5380;BME280;2713;42.680;23.310;2023-02-16T13:07:18;96045.06;;;12.52;42.17
5380;BME280;2713;42.680;23.310;2023-02-16T13:09:52;96044.56;;;12.56;42.02
5380;BME280;2713;42.680;23.310;2023-02-16T13:12:29;96039.75;;;12.21;42.49
5380;BME280;2713;42.680;23.310;2023-02-16T13:15:02;96040.59;;;12.05;42.86
5380;BME280;2713;42.680;23.310;2023-02-16T13:17:36;96036.19;;;11.90;43.52
5380;BME280;2713;42.680;23.310;2023-02-16T13:20:11;96033.22;;;12.09;42.96
5380;BME280;2713;42.680;23.310;2023-02-16T13:22:49;96029.94;;;12.23;42.46
5380;BME280;2713;42.680;23.310;2023-02-16T13:28:08;96031.59;;;12.24;42.74
5380;BME280;2713;42.680;23.310;2023-02-16T13:30:49;96023.44;;;12.27;42.24
5380;BME280;2713;42.680;23.310;2023-02-16T13:33:33;96018.38;;;12.34;42.72
5380;BME280;2713;42.680;23.310;2023-02-16T13:36:12;96021.31;;;12.39;42.76
5380;BME280;2713;42.680;23.310;2023-02-16T13:41:59;96004.88;;;12.22;42.32
5380;BME280;2713;42.680;23.310;2023-02-16T13:44:32;96011.06;;;12.21;42.66
5380;BME280;2713;42.680;23.310;2023-02-16T13:47:01;96010.25;;;12.29;42.29
5380;BME280;2713;42.680;23.310;2023-02-16T13:49:32;96004.66;;;12.40;41.50
5380;BME280;2713;42.680;23.310;2023-02-16T13:52:05;96010.72;;;12.32;41.97
5380;BME280;2713;42.680;23.310;2023-02-16T13:54:35;96006.81;;;12.28;42.00
5380;BME280;2713;42.680;23.310;2023-02-16T13:57:02;96010.09;;;12.22;42.19
5380;BME280;2713;42.680;23.310;2023-02-16T14:00:01;96010.25;;;12.29;41.84
5380;BME280;2713;42.680;23.310;2023-02-16T14:02:56;96003.34;;;12.44;41.72
5380;BME280;2713;42.680;23.310;2023-02-16T14:05:33;96001.88;;;12.49;41.87
5380;BME280;2713;42.680;23.310;2023-02-16T14:08:15;95999.72;;;12.61;41.15
5380;BME280;2713;42.680;23.310;2023-02-16T14:11:05;96002.50;;;12.59;40.95
5380;BME280;2713;42.680;23.310;2023-02-16T14:13:43;96001.50;;;12.60;41.50
5380;BME280;2713;42.680;23.310;2023-02-16T14:16:33;96004.72;;;12.70;41.14
5380;BME280;2713;42.680;23.310;2023-02-16T14:19:16;95982.94;;;12.55;40.98